Time;durP1;ratioP1;P1;durP2;ratioP2;P2;SDS_P1;SDS_P2;PMS_P1;PMS_P2;Temp;Humidity;BMP_temperature;BMP_pressure;BME280_temperature;BME280_humidity;BME280_pressure;Samples;Min_cycle;Max_cycle;Signal;HPM_P1;HPM_P2
2023/12/20 00:02:16;;;;;;;3.80;3.70;;;7.30;1.00;;;;;;5051944;28;20440;-79
2023/12/20 00:04:46;;;;;;;3.70;3.40;;;7.30;1.00;;;;;;5049660;28;20502;-78
2023/12/20 00:07:14;;;;;;;3.50;3.40;;;7.30;1.00;;;;;;5050214;28;20476;-79
2023/12/20 00:09:42;;;;;;;4.00;3.90;;;7.30;1.00;;;;;;5054417;28;20471;-81
2023/12/20 00:12:11;;;;;;;3.37;3.27;;;7.30;1.00;;;;;;5051583;28;20451;-78
2023/12/20 00:14:39;;;;;;;3.80;3.70;;;7.30;1.00;;;;;;5049067;28;20534;-79
2023/12/20 00:17:07;;;;;;;3.70;3.60;;;7.40;1.00;;;;;;5047602;28;20457;-78
2023/12/20 00:19:35;;;;;;;3.60;3.50;;;7.40;1.00;;;;;;5052206;28;20439;-78
2023/12/20 00:22:05;;;;;;;3.50;3.40;;;7.40;1.00;;;;;;5051192;28;20444;-78
2023/12/20 00:24:33;;;;;;;3.70;3.60;;;7.40;1.00;;;;;;5049655;28;20486;-78
2023/12/20 00:27:02;;;;;;;3.40;3.30;;;7.40;22.80;;;;;;5049662;28;20483;-79
2023/12/20 00:29:30;;;;;;;3.90;3.80;;;7.40;40.20;;;;;;5048656;28;20448;-80
2023/12/20 00:31:59;;;;;;;4.10;3.90;;;7.40;99.90;;;;;;5044061;28;20482;-78
2023/12/20 00:34:27;;;;;;;4.03;3.93;;;7.30;94.00;;;;;;5050021;28;20824;-78
2023/12/20 00:36:55;;;;;;;3.83;3.73;;;7.30;99.90;;;;;;5047867;28;20463;-80
2023/12/20 00:39:25;;;;;;;4.00;3.90;;;7.40;99.90;;;;;;5052207;28;20451;-79
2023/12/20 00:41:53;;;;;;;4.00;3.90;;;7.40;99.90;;;;;;5048737;28;20455;-78
2023/12/20 00:44:21;;;;;;;3.87;3.67;;;7.40;1.00;;;;;;5050094;28;20482;-79
2023/12/20 00:46:49;;;;;;;4.13;4.00;;;7.40;1.00;;;;;;5051087;28;20476;-78
2023/12/20 00:49:19;;;;;;;4.07;3.87;;;7.30;99.90;;;;;;5048401;28;20448;-79
2023/12/20 00:51:50;;;;;;;4.00;3.90;;;7.30;17.50;;;;;;5051009;28;20999;-79
2023/12/20 00:54:18;;;;;;;4.10;4.00;;;7.30;1.00;;;;;;5053065;28;20470;-78
2023/12/20 00:56:48;;;;;;;4.33;4.23;;;7.30;99.90;;;;;;5048937;28;20561;-78
2023/12/20 00:59:17;;;;;;;4.23;4.13;;;7.30;99.90;;;;;;5050131;28;20486;-79
2023/12/20 01:01:45;;;;;;;4.10;4.00;;;7.30;99.90;;;;;;5051791;28;20451;-80
2023/12/20 01:04:14;;;;;;;4.33;4.20;;;7.30;1.00;;;;;;5050554;28;20463;-81
2023/12/20 01:06:42;;;;;;;4.80;4.70;;;7.30;1.00;;;;;;5050025;28;20518;-79
2023/12/20 01:09:10;;;;;;;4.23;4.13;;;7.30;1.00;;;;;;5049278;28;20966;-80
2023/12/20 01:11:38;;;;;;;4.20;4.10;;;7.30;1.00;;;;;;5050449;28;20455;-81
2023/12/20 01:14:08;;;;;;;4.20;4.10;;;7.20;1.00;;;;;;5052493;28;20567;-79
2023/12/20 01:16:36;;;;;;;4.30;4.20;;;7.30;99.90;;;;;;5052977;28;20488;-79
2023/12/20 01:19:04;;;;;;;4.50;4.40;;;7.20;99.90;;;;;;5054168;28;20534;-79
2023/12/20 01:21:32;;;;;;;4.60;4.50;;;7.20;1.00;;;;;;5054578;28;20534;-79
2023/12/20 01:24:01;;;;;;;4.70;4.50;;;7.20;1.00;;;;;;5049714;28;20475;-78
2023/12/20 01:26:29;;;;;;;4.50;4.40;;;7.10;1.00;;;;;;5049392;28;20476;-80
2023/12/20 01:28:57;;;;;;;4.60;4.50;;;7.20;1.00;;;;;;5055797;28;20487;-79
2023/12/20 01:31:28;;;;;;;4.73;4.63;;;7.20;1.00;;;;;;5051849;28;20484;-78
2023/12/20 01:33:56;;;;;;;4.60;4.50;;;7.20;1.00;;;;;;5051702;28;20545;-80
2023/12/20 01:36:24;;;;;;;4.60;4.50;;;7.20;99.90;;;;;;5050535;28;20440;-80
2023/12/20 01:38:52;;;;;;;4.63;4.53;;;7.30;99.90;;;;;;5045123;28;20460;-81
2023/12/20 01:41:21;;;;;;;4.90;4.80;;;7.20;99.90;;;;;;5051700;28;20490;-78
2023/12/20 01:43:49;;;;;;;4.67;4.57;;;7.20;1.00;;;;;;5056011;28;20497;-78
2023/12/20 01:46:20;;;;;;;4.80;4.70;;;7.30;1.00;;;;;;5054441;28;20995;-79
2023/12/20 01:48:50;;;;;;;4.60;4.50;;;7.30;1.00;;;;;;5052939;28;21107;-80
2023/12/20 01:51:19;;;;;;;4.90;4.80;;;7.30;99.90;;;;;;5052990;28;20443;-79
2023/12/20 01:53:47;;;;;;;4.70;4.60;;;7.30;80.90;;;;;;5038036;28;20480;-80
2023/12/20 01:56:17;;;;;;;4.80;4.60;;;7.40;71.90;;;;;;5052976;28;20451;-78
2023/12/20 01:58:47;;;;;;;4.60;4.50;;;7.30;1.00;;;;;;5049650;28;20467;-79
2023/12/20 02:01:16;;;;;;;4.70;4.60;;;7.40;91.30;;;;;;5048187;28;20462;-80
2023/12/20 02:03:44;;;;;;;4.60;4.50;;;7.40;1.00;;;;;;5048891;28;20567;-78
2023/12/20 02:06:14;;;;;;;4.90;4.80;;;7.40;1.00;;;;;;5048406;28;20560;-79
2023/12/20 02:08:43;;;;;;;4.70;4.60;;;7.40;1.00;;;;;;5050482;28;20532;-79
2023/12/20 02:11:11;;;;;;;5.63;5.30;;;7.40;99.90;;;;;;5055024;28;20458;-78
2023/12/20 02:13:40;;;;;;;5.23;5.03;;;7.50;99.90;;;;;;5049211;28;20592;-79
2023/12/20 02:16:08;;;;;;;5.20;5.10;;;7.40;99.90;;;;;;5050310;28;20970;-79
2023/12/20 02:18:36;;;;;;;4.80;4.70;;;7.40;99.90;;;;;;5051584;28;20494;-78
2023/12/20 02:21:05;;;;;;;4.83;4.73;;;7.40;99.90;;;;;;5046768;28;20547;-79
2023/12/20 02:23:35;;;;;;;4.90;4.80;;;7.40;1.00;;;;;;5049959;28;20478;-79
2023/12/20 02:26:06;;;;;;;4.80;4.70;;;7.40;99.90;;;;;;5051279;28;20583;-79
2023/12/20 02:28:35;;;;;;;4.70;4.60;;;7.50;99.90;;;;;;5052156;28;21067;-80
2023/12/20 02:31:03;;;;;;;4.80;4.70;;;7.50;99.90;;;;;;5051432;28;20454;-80
2023/12/20 02:33:32;;;;;;;4.73;4.63;;;7.40;99.90;;;;;;5052322;28;20460;-80
2023/12/20 02:36:00;;;;;;;4.60;4.50;;;7.50;99.90;;;;;;5053951;28;20466;-79
2023/12/20 02:38:28;;;;;;;5.00;4.90;;;7.40;99.90;;;;;;5053692;28;20455;-80
2023/12/20 02:40:58;;;;;;;5.00;4.90;;;7.40;99.90;;;;;;5053458;28;20520;-80
2023/12/20 02:43:26;;;;;;;5.00;4.90;;;7.30;1.00;;;;;;5054516;28;20483;-80
2023/12/20 02:45:54;;;;;;;4.93;4.83;;;7.30;1.00;;;;;;5048862;28;20447;-78
2023/12/20 02:48:23;;;;;;;5.00;4.90;;;7.30;99.90;;;;;;5047683;28;22885;-80
2023/12/20 02:50:52;;;;;;;4.97;4.87;;;7.40;99.90;;;;;;5043289;28;20607;-79
2023/12/20 02:53:21;;;;;;;4.90;4.80;;;7.30;99.90;;;;;;5046567;28;21136;-79
2023/12/20 02:55:49;;;;;;;5.30;5.20;;;7.40;62.00;;;;;;5048625;28;20965;-80
2023/12/20 02:58:18;;;;;;;4.80;4.70;;;7.30;99.90;;;;;;5062743;28;21307;-81
2023/12/20 03:00:47;;;;;;;4.87;4.77;;;7.40;99.90;;;;;;5056010;28;20451;-81
2023/12/20 03:03:15;;;;;;;4.30;4.20;;;7.40;14.40;;;;;;5045979;28;20476;-79
2023/12/20 03:05:43;;;;;;;4.30;4.20;;;7.50;1.00;;;;;;5052693;28;20448;-80
2023/12/20 03:08:12;;;;;;;4.63;4.53;;;7.40;12.90;;;;;;5051212;28;20463;-80
2023/12/20 03:10:40;;;;;;;4.40;4.30;;;7.50;1.00;;;;;;5052048;28;20484;-80
2023/12/20 03:13:08;;;;;;;4.53;4.43;;;7.40;99.90;;;;;;5051818;28;20544;-80
2023/12/20 03:15:38;;;;;;;4.40;4.30;;;7.40;99.90;;;;;;5046995;28;20968;-80
2023/12/20 03:18:06;;;;;;;4.50;4.40;;;7.40;99.90;;;;;;5054073;28;20498;-80
2023/12/20 03:20:34;;;;;;;4.80;4.70;;;7.40;99.90;;;;;;5055423;28;21035;-79
2023/12/20 03:23:02;;;;;;;4.70;4.50;;;7.40;99.90;;;;;;5051010;28;20914;-80
2023/12/20 03:25:30;;;;;;;4.40;4.30;;;7.40;99.90;;;;;;5045376;28;20455;-79
2023/12/20 03:27:59;;;;;;;4.40;4.30;;;7.40;99.90;;;;;;5051972;28;21047;-79
2023/12/20 03:30:27;;;;;;;4.60;4.50;;;7.40;99.90;;;;;;5052293;28;20443;-80
2023/12/20 03:32:57;;;;;;;4.40;4.30;;;7.40;99.90;;;;;;5046375;28;20471;-80
2023/12/20 03:35:25;;;;;;;4.10;4.00;;;7.40;1.00;;;;;;5048784;28;20485;-79
2023/12/20 03:37:53;;;;;;;4.20;4.10;;;7.30;1.00;;;;;;5051429;28;20462;-81
2023/12/20 03:40:22;;;;;;;4.40;4.30;;;7.40;1.00;;;;;;5050376;28;20490;-80
2023/12/20 03:42:50;;;;;;;4.30;4.20;;;7.30;1.00;;;;;;5054302;28;20471;-80
2023/12/20 03:45:19;;;;;;;4.10;4.00;;;7.30;99.90;;;;;;5053463;28;21488;-81
2023/12/20 03:47:47;;;;;;;4.37;4.27;;;7.40;1.00;;;;;;5051675;28;20479;-81
2023/12/20 03:50:17;;;;;;;4.40;4.30;;;7.40;98.80;;;;;;5049052;28;20518;-81
2023/12/20 03:52:46;;;;;;;4.40;4.30;;;7.40;90.40;;;;;;5051030;28;20436;-81
2023/12/20 03:55:14;;;;;;;4.30;4.10;;;7.40;1.00;;;;;;5053736;28;20465;-79
2023/12/20 03:57:43;;;;;;;4.60;4.50;;;7.40;1.00;;;;;;5053906;28;20455;-82
2023/12/20 04:00:12;;;;;;;4.43;4.33;;;7.30;1.00;;;;;;5054554;28;20458;-81
2023/12/20 04:02:41;;;;;;;4.90;4.80;;;7.30;99.90;;;;;;5054037;28;20518;-81
2023/12/20 04:05:10;;;;;;;4.97;4.87;;;7.30;99.90;;;;;;5055882;28;20451;-81
2023/12/20 04:07:40;;;;;;;4.77;4.67;;;7.30;99.90;;;;;;5051169;28;20471;-81
2023/12/20 04:10:09;;;;;;;5.00;4.90;;;7.40;99.90;;;;;;5057324;28;20444;-81
2023/12/20 04:12:37;;;;;;;4.70;4.60;;;7.30;1.00;;;;;;5055407;28;20824;-82
2023/12/20 04:15:09;;;;;;;5.00;4.90;;;7.30;99.90;;;;;;5054370;28;20451;-81
2023/12/20 04:17:37;;;;;;;4.83;4.73;;;7.40;99.90;;;;;;5057256;28;20460;-81
2023/12/20 04:20:07;;;;;;;4.80;4.70;;;7.40;99.90;;;;;;5051267;28;20687;-80
2023/12/20 04:22:35;;;;;;;5.00;4.90;;;7.30;99.90;;;;;;5048335;28;20463;-81
2023/12/20 04:25:06;;;;;;;4.90;4.80;;;7.40;1.00;;;;;;5053245;28;20443;-80
2023/12/20 04:27:34;;;;;;;4.50;4.40;;;7.30;99.90;;;;;;5049772;28;20461;-80
2023/12/20 04:30:02;;;;;;;4.73;4.63;;;7.40;99.90;;;;;;5051936;28;20476;-80
2023/12/20 04:32:31;;;;;;;5.10;5.00;;;7.30;1.00;;;;;;5052848;28;20456;-79
2023/12/20 04:34:59;;;;;;;4.90;4.80;;;7.30;1.00;;;;;;5046917;28;20455;-79
2023/12/20 04:37:28;;;;;;;4.80;4.70;;;7.30;99.90;;;;;;5049446;28;20470;-81
2023/12/20 04:39:56;;;;;;;5.10;5.00;;;7.30;99.60;;;;;;5050144;28;21490;-81
2023/12/20 04:42:26;;;;;;;4.80;4.70;;;7.30;99.90;;;;;;5053228;28;20531;-80
2023/12/20 04:44:54;;;;;;;5.10;5.00;;;7.30;1.00;;;;;;5049545;28;20489;-80
2023/12/20 04:47:22;;;;;;;5.10;5.00;;;7.30;1.00;;;;;;5052815;28;20466;-80
2023/12/20 04:49:50;;;;;;;5.00;4.90;;;7.20;36.70;;;;;;5053141;28;20595;-82
2023/12/20 04:52:19;;;;;;;5.40;5.10;;;7.20;1.00;;;;;;5051391;28;20483;-79
2023/12/20 04:54:47;;;;;;;4.63;4.53;;;7.20;1.00;;;;;;5047079;28;20466;-82
2023/12/20 04:57:15;;;;;;;4.60;4.50;;;7.20;1.00;;;;;;5051417;28;20506;-79
2023/12/20 04:59:45;;;;;;;4.63;4.53;;;7.20;1.00;;;;;;5050950;28;20451;-79
2023/12/20 05:02:13;;;;;;;4.90;4.50;;;7.20;1.00;;;;;;5043372;28;20505;-80
2023/12/20 05:04:42;;;;;;;4.63;4.53;;;7.30;99.90;;;;;;5051759;28;20463;-81
2023/12/20 05:07:10;;;;;;;4.20;4.10;;;7.20;99.90;;;;;;5051517;28;20466;-79
2023/12/20 05:09:39;;;;;;;4.20;4.10;;;7.20;1.00;;;;;;5050464;28;20561;-84
2023/12/20 05:12:08;;;;;;;4.40;4.30;;;7.20;1.00;;;;;;5048770;28;20451;-84
2023/12/20 05:14:36;;;;;;;4.40;4.30;;;7.20;99.90;;;;;;5055971;28;21048;-80
2023/12/20 05:17:06;;;;;;;4.50;4.40;;;7.20;99.90;;;;;;5049698;28;20474;-80
2023/12/20 05:19:35;;;;;;;4.60;4.50;;;7.20;99.90;;;;;;5046451;28;21138;-80
2023/12/20 05:22:04;;;;;;;4.43;4.33;;;7.10;99.90;;;;;;5047624;28;20452;-79
2023/12/20 05:24:32;;;;;;;4.83;4.73;;;7.10;99.90;;;;;;5044479;28;20558;-79
2023/12/20 05:27:00;;;;;;;5.20;5.00;;;7.10;1.00;;;;;;5046824;28;20456;-79
2023/12/20 05:29:29;;;;;;;4.70;4.60;;;7.10;99.90;;;;;;5054506;28;20463;-80
2023/12/20 05:31:58;;;;;;;4.70;4.60;;;7.10;1.00;;;;;;5047338;28;20490;-79
2023/12/20 05:34:28;;;;;;;4.87;4.77;;;7.20;99.90;;;;;;5048508;28;20667;-80
2023/12/20 05:36:57;;;;;;;5.30;5.20;;;7.20;1.00;;;;;;5051453;28;20451;-78
2023/12/20 05:39:25;;;;;;;4.83;4.73;;;7.20;1.00;;;;;;5049819;28;21214;-78
2023/12/20 05:41:53;;;;;;;4.80;4.70;;;7.20;1.00;;;;;;5051090;28;20462;-79
2023/12/20 05:44:22;;;;;;;4.60;4.50;;;7.20;1.00;;;;;;5041671;28;20474;-78
2023/12/20 05:46:50;;;;;;;4.80;4.70;;;7.20;99.90;;;;;;5048717;28;21072;-79
2023/12/20 05:49:18;;;;;;;4.70;4.60;;;7.20;1.00;;;;;;5049348;28;20625;-79
2023/12/20 05:51:47;;;;;;;4.73;4.63;;;7.20;1.00;;;;;;5053211;28;20456;-78
2023/12/20 05:54:16;;;;;;;4.73;4.63;;;7.20;99.90;;;;;;5035055;28;20496;-77
2023/12/20 05:56:44;;;;;;;5.07;4.97;;;7.10;99.90;;;;;;5045134;28;20452;-77
2023/12/20 05:59:12;;;;;;;4.80;4.70;;;7.20;99.90;;;;;;5045391;28;20464;-77
2023/12/20 06:01:40;;;;;;;4.30;4.20;;;7.20;78.80;;;;;;5053269;28;20460;-77
2023/12/20 06:04:08;;;;;;;4.17;4.07;;;7.10;99.90;;;;;;5041704;28;20478;-77
2023/12/20 06:06:42;;;;;;;4.43;4.33;;;7.20;20.30;;;;;;5049795;28;20749;-78
2023/12/20 06:09:12;;;;;;;4.80;4.70;;;7.20;99.90;;;;;;5054325;28;21407;-78
2023/12/20 06:11:40;;;;;;;5.70;5.47;;;7.10;1.00;;;;;;5050670;28;20446;-78
2023/12/20 06:14:09;;;;;;;4.97;4.87;;;7.10;16.80;;;;;;5049184;28;21022;-79
2023/12/20 06:16:37;;;;;;;5.57;5.37;;;7.10;99.90;;;;;;5049080;28;20467;-78
2023/12/20 06:19:05;;;;;;;6.10;5.73;;;7.10;1.00;;;;;;5046978;28;20509;-78
2023/12/20 06:21:33;;;;;;;4.50;4.40;;;7.10;1.00;;;;;;5051984;28;20447;-77
2023/12/20 06:24:01;;;;;;;6.50;6.20;;;7.10;1.00;;;;;;5041083;28;20566;-76
2023/12/20 06:26:31;;;;;;;9.20;8.47;;;7.10;1.00;;;;;;5048791;28;20964;-77
2023/12/20 06:28:59;;;;;;;5.37;5.17;;;7.10;1.00;;;;;;5051530;28;20463;-77
2023/12/20 06:31:27;;;;;;;4.50;4.40;;;7.10;99.90;;;;;;5052319;28;20509;-78
2023/12/20 06:33:57;;;;;;;4.70;4.60;;;7.10;1.00;;;;;;5052459;28;20572;-78
2023/12/20 06:36:26;;;;;;;5.97;5.77;;;7.10;1.00;;;;;;5053768;28;20533;-77
2023/12/20 06:38:54;;;;;;;4.73;4.63;;;7.10;99.90;;;;;;5055062;28;20473;-76
2023/12/20 06:41:24;;;;;;;4.87;4.77;;;7.10;99.90;;;;;;5055789;28;21406;-78
2023/12/20 06:43:54;;;;;;;4.73;4.63;;;7.10;1.00;;;;;;5066160;28;20476;-77
2023/12/20 06:46:22;;;;;;;4.83;4.73;;;7.10;1.00;;;;;;5053508;28;20444;-77
2023/12/20 06:48:50;;;;;;;5.80;5.60;;;7.20;1.00;;;;;;5054846;28;20459;-76
2023/12/20 06:51:20;;;;;;;5.23;5.13;;;7.10;99.90;;;;;;5055721;28;20455;-78
2023/12/20 06:53:48;;;;;;;4.90;4.80;;;7.20;99.90;;;;;;5051301;28;21017;-78
2023/12/20 06:56:16;;;;;;;5.27;5.07;;;7.20;99.90;;;;;;5045520;28;20486;-78
2023/12/20 06:58:47;;;;;;;5.30;5.10;;;7.20;99.90;;;;;;5046972;28;20479;-78
2023/12/20 07:01:17;;;;;;;4.80;4.70;;;7.20;89.90;;;;;;5051606;28;20443;-77
2023/12/20 07:03:45;;;;;;;4.97;4.87;;;7.20;99.90;;;;;;5051149;28;20490;-77
2023/12/20 07:06:16;;;;;;;5.97;5.57;;;7.20;99.90;;;;;;5048456;28;20452;-78
2023/12/20 07:08:45;;;;;;;7.57;6.80;;;7.20;99.90;;;;;;5053781;28;20459;-77
2023/12/20 07:11:13;;;;;;;5.30;5.20;;;7.20;99.90;;;;;;5055622;28;20458;-76
2023/12/20 07:13:41;;;;;;;5.27;5.10;;;7.20;1.00;;;;;;5044489;28;21260;-77
2023/12/20 07:16:10;;;;;;;5.77;5.50;;;7.30;1.00;;;;;;5050997;28;20451;-76
2023/12/20 07:18:39;;;;;;;6.00;5.50;;;7.20;99.90;;;;;;5053404;28;20537;-77
2023/12/20 07:21:09;;;;;;;5.03;4.77;;;7.20;1.00;;;;;;5053930;28;20523;-77
2023/12/20 07:23:37;;;;;;;4.83;4.73;;;7.20;99.90;;;;;;5048968;28;20481;-78
2023/12/20 07:26:05;;;;;;;5.67;5.40;;;7.20;99.90;;;;;;5051614;28;20463;-78
2023/12/20 07:28:33;;;;;;;5.10;4.90;;;7.30;99.90;;;;;;5052523;28;20452;-77
2023/12/20 07:31:01;;;;;;;4.97;4.87;;;7.30;1.00;;;;;;5052881;28;21281;-77
2023/12/20 07:33:30;;;;;;;5.10;5.00;;;7.30;1.00;;;;;;5052654;28;20475;-76
2023/12/20 07:36:08;;;;;;;5.10;5.00;;;7.30;1.00;;;;;;5052157;28;20448;-78
2023/12/20 07:38:37;;;;;;;5.70;5.47;;;7.30;34.40;;;;;;5051105;28;20534;-77
2023/12/20 07:41:05;;;;;;;5.67;5.57;;;7.30;99.90;;;;;;5052583;28;20447;-78
2023/12/20 07:43:34;;;;;;;5.17;5.07;;;7.30;99.90;;;;;;5050735;28;20474;-77
2023/12/20 07:46:06;;;;;;;7.70;7.03;;;7.30;99.90;;;;;;5052868;28;21019;-79
2023/12/20 07:48:36;;;;;;;5.53;5.43;;;7.40;1.00;;;;;;5053798;28;20465;-77
2023/12/20 07:51:05;;;;;;;6.07;5.77;;;7.30;1.00;;;;;;5050870;28;20470;-79
2023/12/20 07:53:36;;;;;;;5.70;5.50;;;7.40;99.90;;;;;;5041720;28;22205;-78
2023/12/20 07:56:14;;;;;;;5.80;5.60;;;7.30;99.90;;;;;;5033159;28;21035;-77
2023/12/20 07:58:42;;;;;;;5.77;5.57;;;7.30;99.90;;;;;;5039978;28;20492;-78
2023/12/20 08:01:20;;;;;;;6.00;5.80;;;7.30;99.90;;;;;;5037168;28;20997;-79
2023/12/20 08:03:51;;;;;;;5.70;5.60;;;7.30;1.00;;;;;;5034143;28;20576;-77
2023/12/20 08:06:20;;;;;;;5.70;5.40;;;7.30;1.00;;;;;;5047660;28;20482;-77
2023/12/20 08:08:50;;;;;;;6.33;6.03;;;7.20;1.00;;;;;;5048004;28;20451;-77
2023/12/20 08:11:29;;;;;;;6.60;6.20;;;7.20;99.90;;;;;;5041784;28;20562;-77
2023/12/20 08:13:58;;;;;;;6.13;5.90;;;7.30;99.90;;;;;;5042154;28;20486;-77
2023/12/20 08:16:26;;;;;;;6.50;6.27;;;7.20;1.00;;;;;;5035839;28;20460;-77
2023/12/20 08:18:55;;;;;;;6.50;6.30;;;7.20;99.90;;;;;;5040805;28;21112;-78
2023/12/20 08:21:23;;;;;;;6.27;6.07;;;7.20;99.90;;;;;;5038038;28;20454;-79
2023/12/20 08:23:53;;;;;;;6.00;5.80;;;7.20;99.90;;;;;;5036226;28;20563;-77
2023/12/20 08:26:22;;;;;;;6.70;6.50;;;7.30;1.00;;;;;;5035997;28;20451;-77
2023/12/20 08:28:50;;;;;;;6.87;6.57;;;7.20;1.00;;;;;;5049295;28;20459;-76
2023/12/20 08:31:19;;;;;;;5.80;5.70;;;7.20;1.00;;;;;;5049499;28;20607;-77
2023/12/20 08:33:48;;;;;;;6.60;6.27;;;7.20;99.90;;;;;;5050729;28;20999;-78
2023/12/20 08:36:18;;;;;;;6.80;6.50;;;7.20;1.00;;;;;;5050836;28;20448;-77
2023/12/20 08:38:46;;;;;;;6.30;6.10;;;7.20;99.90;;;;;;5049574;28;20488;-77
2023/12/20 08:41:17;;;;;;;6.37;6.17;;;7.30;99.90;;;;;;5032848;28;20471;-78
2023/12/20 08:43:46;;;;;;;6.10;5.90;;;7.20;1.00;;;;;;5047640;28;20643;-78
2023/12/20 08:46:16;;;;;;;6.00;5.80;;;7.30;1.00;;;;;;5040229;28;20483;-79
2023/12/20 08:48:44;;;;;;;5.50;5.40;;;7.20;1.00;;;;;;5041351;28;20458;-78
2023/12/20 08:51:14;;;;;;;6.47;6.27;;;7.20;1.00;;;;;;5050258;28;21152;-78
2023/12/20 08:53:44;;;;;;;5.50;5.40;;;7.20;99.90;;;;;;5050602;28;20558;-77
2023/12/20 08:56:13;;;;;;;6.17;5.77;;;7.20;99.90;;;;;;5047070;28;20453;-78
2023/12/20 08:58:42;;;;;;;5.60;5.40;;;7.20;1.00;;;;;;5052514;28;20455;-78
2023/12/20 09:01:10;;;;;;;5.40;5.20;;;7.20;1.00;;;;;;5048093;28;21033;-78
2023/12/20 09:03:39;;;;;;;5.47;5.27;;;7.20;99.90;;;;;;5049849;28;20475;-78
2023/12/20 09:06:07;;;;;;;5.77;5.37;;;7.20;1.00;;;;;;5048819;28;20471;-78
2023/12/20 09:08:35;;;;;;;5.37;4.90;;;7.10;1.00;;;;;;5044394;28;21148;-77
2023/12/20 09:11:04;;;;;;;5.50;5.30;;;7.10;99.90;;;;;;5044678;28;20494;-77
2023/12/20 09:13:33;;;;;;;5.20;4.80;;;7.10;99.90;;;;;;5051650;28;20475;-78
2023/12/20 09:16:03;;;;;;;5.50;5.20;;;7.20;99.90;;;;;;5052801;28;20539;-77
2023/12/20 09:18:31;;;;;;;5.47;5.27;;;7.10;99.90;;;;;;5049926;28;20521;-78
2023/12/20 09:21:00;;;;;;;4.90;4.60;;;7.10;99.90;;;;;;5049842;28;20455;-77
2023/12/20 09:23:28;;;;;;;4.87;4.50;;;7.20;99.90;;;;;;5049185;28;20472;-77
2023/12/20 09:25:56;;;;;;;5.67;5.33;;;7.20;99.90;;;;;;5046877;28;20595;-78
2023/12/20 09:28:25;;;;;;;4.77;4.57;;;7.30;99.90;;;;;;5049134;28;20459;-76
2023/12/20 09:30:53;;;;;;;5.20;4.90;;;7.40;99.90;;;;;;5049698;28;20484;-76
2023/12/20 09:33:24;;;;;;;4.67;4.57;;;7.60;99.90;;;;;;5041101;28;20475;-77
2023/12/20 09:35:53;;;;;;;4.80;4.50;;;7.70;99.90;;;;;;5049433;28;20935;-78
2023/12/20 09:38:22;;;;;;;4.37;4.17;;;8.00;36.80;;;;;;5046027;28;20945;-77
2023/12/20 09:40:50;;;;;;;5.20;4.70;;;8.20;1.00;;;;;;5043534;28;20484;-77
2023/12/20 09:43:21;;;;;;;4.50;4.20;;;8.50;1.00;;;;;;5048849;28;21282;-77
2023/12/20 09:45:52;;;;;;;4.33;4.03;;;8.60;1.00;;;;;;5043834;28;20455;-77
2023/12/20 09:48:21;;;;;;;3.83;3.63;;;8.70;1.00;;;;;;5047012;28;20529;-77
2023/12/20 09:50:51;;;;;;;5.60;4.60;;;8.80;1.00;;;;;;5050947;28;20559;-77
2023/12/20 09:53:23;;;;;;;4.60;4.30;;;8.80;1.00;;;;;;5035567;28;20507;-78
2023/12/20 09:55:54;;;;;;;4.40;4.20;;;8.80;1.00;;;;;;5041561;28;20566;-80
2023/12/20 09:58:22;;;;;;;4.97;4.30;;;8.70;99.90;;;;;;5050298;28;21215;-77
2023/12/20 10:00:51;;;;;;;4.27;4.07;;;9.00;99.90;;;;;;5049088;28;20439;-77
2023/12/20 10:03:24;;;;;;;4.40;4.20;;;9.30;99.90;;;;;;5044872;28;20475;-79
2023/12/20 10:05:57;;;;;;;5.27;4.30;;;9.80;99.90;;;;;;5050969;28;20447;-78
2023/12/20 10:08:26;;;;;;;4.77;4.57;;;10.40;99.90;;;;;;5052919;28;20451;-77
2023/12/20 10:10:54;;;;;;;5.03;4.63;;;10.90;99.90;;;;;;5048510;28;20487;-79
2023/12/20 10:13:23;;;;;;;4.50;4.30;;;10.70;99.90;;;;;;5052446;28;20566;-78
2023/12/20 10:15:51;;;;;;;3.90;3.70;;;10.40;99.90;;;;;;5054685;28;20487;-77
2023/12/20 10:18:21;;;;;;;4.50;4.20;;;10.00;99.90;;;;;;5035027;28;20470;-78
2023/12/20 10:20:50;;;;;;;3.97;3.83;;;9.70;99.90;;;;;;5047212;28;20579;-78
2023/12/20 10:23:20;;;;;;;3.53;3.40;;;9.40;99.90;;;;;;5044633;28;20490;-78
2023/12/20 10:25:57;;;;;;;4.50;4.20;;;9.20;99.90;;;;;;5050394;28;20506;-77
2023/12/20 10:28:27;;;;;;;3.40;3.20;;;9.00;99.90;;;;;;5047956;28;20550;-78
2023/12/20 10:30:57;;;;;;;3.60;3.30;;;8.80;99.90;;;;;;5050049;28;20452;-79
2023/12/20 10:33:26;;;;;;;4.13;3.83;;;8.70;99.90;;;;;;5050419;28;20486;-77
2023/12/20 10:35:56;;;;;;;3.43;3.20;;;8.50;99.90;;;;;;5050788;28;20468;-77
2023/12/20 10:38:26;;;;;;;3.70;3.50;;;8.30;99.90;;;;;;5053713;28;20455;-76
2023/12/20 10:40:58;;;;;;;3.63;3.30;;;8.20;99.90;;;;;;5052612;28;20529;-78
2023/12/20 10:43:28;;;;;;;4.03;3.73;;;8.30;99.90;;;;;;5046203;28;20467;-78
2023/12/20 10:45:58;;;;;;;3.60;3.40;;;8.20;99.90;;;;;;5041853;28;20915;-78
2023/12/20 10:48:29;;;;;;;3.13;3.03;;;8.20;99.90;;;;;;5045953;28;20501;-78
2023/12/20 10:50:59;;;;;;;3.47;3.17;;;8.20;99.90;;;;;;5044178;28;20467;-77
2023/12/20 10:53:29;;;;;;;3.40;3.20;;;8.20;99.90;;;;;;5047207;28;21260;-77
2023/12/20 10:56:00;;;;;;;3.63;3.33;;;8.10;99.90;;;;;;5049551;28;21278;-77
2023/12/20 10:58:33;;;;;;;3.20;3.00;;;8.10;99.90;;;;;;5046601;28;20490;-77
2023/12/20 11:01:02;;;;;;;3.17;2.87;;;8.10;99.90;;;;;;5053200;28;20558;-76
2023/12/20 11:03:36;;;;;;;4.63;3.70;;;8.10;99.90;;;;;;5043721;28;20574;-77
2023/12/20 11:06:10;;;;;;;4.77;4.37;;;8.10;99.90;;;;;;5050212;28;20467;-76
2023/12/20 11:08:45;;;;;;;3.50;3.40;;;8.00;99.90;;;;;;5049322;28;20468;-77
2023/12/20 11:11:21;;;;;;;3.63;3.37;;;8.10;99.90;;;;;;5052866;28;20991;-77
2023/12/20 11:13:59;;;;;;;3.60;3.30;;;8.20;99.90;;;;;;5051238;28;20628;-77
2023/12/20 11:16:27;;;;;;;2.83;2.63;;;8.20;99.90;;;;;;5048237;28;20455;-78
2023/12/20 11:19:08;;;;;;;2.53;2.30;;;8.10;99.90;;;;;;5044672;28;20541;-78
2023/12/20 11:21:37;;;;;;;2.63;2.53;;;8.10;99.90;;;;;;5047109;28;20514;-77
2023/12/20 11:24:07;;;;;;;3.10;2.90;;;8.00;99.90;;;;;;5048392;28;20481;-77
2023/12/20 11:26:35;;;;;;;4.00;3.00;;;8.30;99.90;;;;;;5050475;28;20467;-76
2023/12/20 11:29:32;;;;;;;4.03;2.53;;;8.50;99.90;;;;;;5053652;28;20788;-77
2023/12/20 11:32:02;;;;;;;2.80;2.60;;;8.50;99.90;;;;;;5053114;28;20493;-78
2023/12/20 11:34:33;;;;;;;3.00;2.80;;;8.30;99.90;;;;;;5045416;28;20471;-77
2023/12/20 11:37:03;;;;;;;3.17;2.97;;;8.30;99.90;;;;;;5047650;28;20513;-78
2023/12/20 11:39:33;;;;;;;2.77;2.43;;;8.20;99.90;;;;;;5050201;28;20447;-77
2023/12/20 11:42:06;;;;;;;2.70;2.50;;;8.20;99.90;;;;;;5053470;28;20539;-78
2023/12/20 11:44:34;;;;;;;2.60;2.50;;;8.10;99.90;;;;;;5048782;28;20475;-78
2023/12/20 11:47:02;;;;;;;2.53;2.43;;;8.10;99.90;;;;;;5051493;28;20461;-77
2023/12/20 11:49:31;;;;;;;2.67;2.47;;;8.10;99.90;;;;;;5049162;28;20439;-77
2023/12/20 11:52:00;;;;;;;2.93;2.83;;;8.00;99.90;;;;;;5049684;28;20471;-77
2023/12/20 11:54:28;;;;;;;2.63;2.43;;;8.00;99.90;;;;;;5046390;28;20468;-78
2023/12/20 11:56:58;;;;;;;3.13;2.63;;;8.00;99.90;;;;;;5045801;28;20544;-78
2023/12/20 11:59:26;;;;;;;2.80;2.60;;;8.00;99.90;;;;;;5048429;28;20471;-78
2023/12/20 12:01:56;;;;;;;5.60;2.70;;;8.00;99.90;;;;;;5051212;28;20444;-78
2023/12/20 12:04:24;;;;;;;3.00;2.80;;;7.90;99.90;;;;;;5046702;28;20472;-77
2023/12/20 12:06:54;;;;;;;2.77;2.40;;;7.90;99.90;;;;;;5048718;28;20463;-77
2023/12/20 12:09:22;;;;;;;3.43;2.83;;;7.90;99.90;;;;;;5046619;28;20451;-78
2023/12/20 12:11:50;;;;;;;2.77;2.57;;;7.90;99.90;;;;;;5047878;28;20508;-78
2023/12/20 12:14:20;;;;;;;6.13;3.10;;;7.90;99.90;;;;;;5048858;28;20558;-77
2023/12/20 12:16:50;;;;;;;2.83;2.63;;;7.90;99.90;;;;;;5049165;28;20459;-77
2023/12/20 12:19:22;;;;;;;5.57;2.60;;;7.90;99.90;;;;;;5049342;28;20459;-78
2023/12/20 12:21:50;;;;;;;2.83;2.57;;;7.90;99.90;;;;;;5050253;28;21051;-77
2023/12/20 12:24:21;;;;;;;2.27;2.17;;;7.90;99.90;;;;;;5047421;28;20520;-77
2023/12/20 12:26:52;;;;;;;3.10;2.90;;;7.90;99.90;;;;;;5045002;28;20464;-77
2023/12/20 12:29:22;;;;;;;3.50;2.10;;;7.90;99.90;;;;;;5051445;28;20888;-78
2023/12/20 12:31:51;;;;;;;4.67;2.60;;;8.00;99.90;;;;;;5051453;28;20451;-78
2023/12/20 12:34:19;;;;;;;2.83;2.63;;;8.00;99.90;;;;;;5050360;28;20522;-77
2023/12/20 12:36:48;;;;;;;4.20;2.90;;;7.90;99.90;;;;;;5050439;28;20965;-77
2023/12/20 12:39:18;;;;;;;3.50;2.70;;;7.80;99.90;;;;;;5050386;28;20456;-77
2023/12/20 12:41:46;;;;;;;3.03;2.83;;;7.90;99.90;;;;;;5048669;28;20459;-77
2023/12/20 12:44:15;;;;;;;6.00;2.63;;;7.90;99.90;;;;;;5048720;28;20478;-78
2023/12/20 12:46:49;;;;;;;4.20;2.40;;;7.90;99.90;;;;;;5047654;28;20555;-77
2023/12/20 12:49:18;;;;;;;3.77;2.37;;;7.90;99.90;;;;;;5048785;28;20494;-77
2023/12/20 12:51:46;;;;;;;2.07;1.97;;;7.90;99.90;;;;;;5051535;28;20479;-77
2023/12/20 12:54:16;;;;;;;3.33;2.20;;;8.00;99.90;;;;;;5052894;28;20477;-77
2023/12/20 12:56:44;;;;;;;2.97;2.73;;;8.00;99.90;;;;;;5053687;28;20456;-79
2023/12/20 12:59:13;;;;;;;2.87;2.47;;;8.00;99.90;;;;;;5047449;28;20472;-77
2023/12/20 13:01:41;;;;;;;2.60;2.40;;;7.90;99.90;;;;;;5049602;28;20462;-77
2023/12/20 13:04:11;;;;;;;3.10;2.47;;;7.90;99.90;;;;;;5045835;28;20559;-76
2023/12/20 13:06:42;;;;;;;2.70;2.50;;;7.90;99.90;;;;;;5050423;28;20957;-77
2023/12/20 13:09:10;;;;;;;4.30;2.60;;;8.00;99.90;;;;;;5045915;28;20537;-76
2023/12/20 13:11:38;;;;;;;3.20;3.00;;;7.90;99.90;;;;;;5048650;28;21092;-77